sensor_id;sensor_type;location;lat;lon;timestamp;pressure;altitude;pressure_sealevel;temperature;humidity
77281;BME280;66339;47.262;17.144;2023-03-24T00:02:17;99805.31;;;20.51;46.47
77281;BME280;66339;47.262;17.144;2023-03-24T00:04:48;99810.69;;;20.51;46.41
77281;BME280;66339;47.262;17.144;2023-03-24T00:07:15;99807.81;;;20.48;46.34
77281;BME280;66339;47.262;17.144;2023-03-24T00:09:43;99813.44;;;20.46;46.37
77281;BME280;66339;47.262;17.144;2023-03-24T00:12:12;99811.81;;;20.50;46.37
77281;BME280;66339;47.262;17.144;2023-03-24T00:14:43;99805.13;;;20.48;46.22
77281;BME280;66339;47.262;17.144;2023-03-24T00:17:14;99802.72;;;20.46;46.21
77281;BME280;66339;47.262;17.144;2023-03-24T00:19:45;99794.94;;;20.45;46.19
77281;BME280;66339;47.262;17.144;2023-03-24T00:22:12;99800.31;;;20.45;46.17
77281;BME280;66339;47.262;17.144;2023-03-24T00:24:40;99789.59;;;20.45;46.17
77281;BME280;66339;47.262;17.144;2023-03-24T00:27:11;99790.97;;;20.42;46.23
77281;BME280;66339;47.262;17.144;2023-03-24T00:29:44;99787.16;;;20.43;46.16
77281;BME280;66339;47.262;17.144;2023-03-24T00:32:15;99779.41;;;20.42;46.21
77281;BME280;66339;47.262;17.144;2023-03-24T00:34:46;99777.03;;;20.40;46.29
77281;BME280;66339;47.262;17.144;2023-03-24T00:37:18;99771.66;;;20.40;46.21
77281;BME280;66339;47.262;17.144;2023-03-24T00:39:46;99775.41;;;20.39;46.21
77281;BME280;66339;47.262;17.144;2023-03-24T00:42:15;99770.06;;;20.39;46.18
77281;BME280;66339;47.262;17.144;2023-03-24T00:44:45;99778.09;;;20.39;46.17
77281;BME280;66339;47.262;17.144;2023-03-24T00:47:16;99765.50;;;20.40;46.21
77281;BME280;66339;47.262;17.144;2023-03-24T00:49:44;99759.31;;;20.39;46.20
77281;BME280;66339;47.262;17.144;2023-03-24T00:52:13;99746.19;;;20.38;46.17
77281;BME280;66339;47.262;17.144;2023-03-24T00:54:43;99743.19;;;20.39;46.20
77281;BME280;66339;47.262;17.144;2023-03-24T00:57:14;99745.38;;;20.37;46.12
77281;BME280;66339;47.262;17.144;2023-03-24T00:59:41;99749.66;;;20.38;46.10
77281;BME280;66339;47.262;17.144;2023-03-24T01:02:11;99752.34;;;20.38;46.12
77281;BME280;66339;47.262;17.144;2023-03-24T01:04:41;99749.97;;;20.37;46.10
77281;BME280;66339;47.262;17.144;2023-03-24T01:07:26;99743.69;;;21.01;44.85
77281;BME280;66339;47.262;17.144;2023-03-24T01:09:56;99743.69;;;21.01;44.85
77281;BME280;66339;47.262;17.144;2023-03-24T01:12:32;99741.59;;;20.38;45.98
77281;BME280;66339;47.262;17.144;2023-03-24T01:15:01;99749.66;;;20.38;45.98
77281;BME280;66339;47.262;17.144;2023-03-24T01:17:31;99753.44;;;20.37;45.95
77281;BME280;66339;47.262;17.144;2023-03-24T01:20:02;99758.50;;;20.39;45.95
77281;BME280;66339;47.262;17.144;2023-03-24T01:22:29;99752.94;;;20.35;46.02
77281;BME280;66339;47.262;17.144;2023-03-24T01:24:59;99750.25;;;20.35;45.94
77281;BME280;66339;47.262;17.144;2023-03-24T01:27:33;99750.56;;;20.33;45.93
77281;BME280;66339;47.262;17.144;2023-03-24T01:30:01;99746.75;;;20.34;45.90
77281;BME280;66339;47.262;17.144;2023-03-24T01:32:34;99751.03;;;20.35;45.84
77281;BME280;66339;47.262;17.144;2023-03-24T01:35:08;99744.38;;;20.33;45.90
77281;BME280;66339;47.262;17.144;2023-03-24T01:37:35;99742.19;;;20.35;45.82
77281;BME280;66339;47.262;17.144;2023-03-24T01:40:03;99729.84;;;20.34;45.77
77281;BME280;66339;47.262;17.144;2023-03-24T01:42:30;99719.91;;;20.34;45.81
77281;BME280;66339;47.262;17.144;2023-03-24T01:45:39;99722.09;;;20.32;45.77
77281;BME280;66339;47.262;17.144;2023-03-24T01:47:52;99724.28;;;20.30;45.85
77281;BME280;66339;47.262;17.144;2023-03-24T01:50:22;99719.69;;;20.31;45.77
77281;BME280;66339;47.262;17.144;2023-03-24T01:52:52;99718.13;;;20.30;45.81
77281;BME280;66339;47.262;17.144;2023-03-24T01:55:19;99716.53;;;20.29;45.88
77281;BME280;66339;47.262;17.144;2023-03-24T01:57:49;99711.16;;;20.29;45.90
77281;BME280;66339;47.262;17.144;2023-03-24T02:00:21;99711.94;;;20.29;45.85
77281;BME280;66339;47.262;17.144;2023-03-24T02:02:54;99721.91;;;20.29;45.80
77281;BME280;66339;47.262;17.144;2023-03-24T02:05:32;99714.94;;;20.28;45.83
77281;BME280;66339;47.262;17.144;2023-03-24T02:08:22;99704.47;;;20.26;45.84
77281;BME280;66339;47.262;17.144;2023-03-24T02:10:55;99706.38;;;20.26;45.79
77281;BME280;66339;47.262;17.144;2023-03-24T02:13:28;99708.75;;;20.27;45.68
77281;BME280;66339;47.262;17.144;2023-03-24T02:16:03;99704.78;;;20.25;45.69
77281;BME280;66339;47.262;17.144;2023-03-24T02:24:29;99701.59;;;20.23;45.68
77281;BME280;66339;47.262;17.144;2023-03-24T02:32:56;99692.44;;;20.24;45.64
77281;BME280;66339;47.262;17.144;2023-03-24T02:36:09;99687.06;;;20.24;45.66
77281;BME280;66339;47.262;17.144;2023-03-24T02:52:39;99672.16;;;20.18;45.78
77281;BME280;66339;47.262;17.144;2023-03-24T02:55:14;99664.56;;;20.20;45.69
77281;BME280;66339;47.262;17.144;2023-03-24T02:57:55;99668.34;;;20.19;45.72
77281;BME280;66339;47.262;17.144;2023-03-24T03:00:44;99672.16;;;20.18;45.71
77281;BME280;66339;47.262;17.144;2023-03-24T03:05:55;99653.66;;;20.16;45.73
77281;BME280;66339;47.262;17.144;2023-03-24T03:08:30;99662.00;;;20.15;45.72
77281;BME280;66339;47.262;17.144;2023-03-24T03:11:01;99667.09;;;20.16;45.73
77281;BME280;66339;47.262;17.144;2023-03-24T03:13:43;99654.44;;;20.17;45.67
77281;BME280;66339;47.262;17.144;2023-03-24T03:16:35;99673.53;;;20.15;45.70
77281;BME280;66339;47.262;17.144;2023-03-24T03:19:17;99665.78;;;20.14;45.71
77281;BME280;66339;47.262;17.144;2023-03-24T03:21:47;99664.97;;;20.13;45.71
77281;BME280;66339;47.262;17.144;2023-03-24T03:26:59;99673.81;;;20.14;45.67
77281;BME280;66339;47.262;17.144;2023-03-24T03:29:32;99679.47;;;20.12;45.71
77281;BME280;66339;47.262;17.144;2023-03-24T03:32:06;99673.31;;;20.11;45.68
77281;BME280;66339;47.262;17.144;2023-03-24T03:42:56;99684.06;;;20.11;45.61
77281;BME280;66339;47.262;17.144;2023-03-24T03:45:27;99684.06;;;20.11;45.60
77281;BME280;66339;47.262;17.144;2023-03-24T03:47:57;99670.41;;;20.08;45.63
77281;BME280;66339;47.262;17.144;2023-03-24T03:50:27;99670.94;;;20.10;45.53
77281;BME280;66339;47.262;17.144;2023-03-24T03:52:57;99668.56;;;20.08;45.51
77281;BME280;66339;47.262;17.144;2023-03-24T03:55:29;99672.31;;;20.07;45.51
77281;BME280;66339;47.262;17.144;2023-03-24T03:57:57;99671.25;;;20.08;45.49
77281;BME280;66339;47.262;17.144;2023-03-24T04:00:24;99670.12;;;20.09;45.44
77281;BME280;66339;47.262;17.144;2023-03-24T04:08:56;99665.34;;;20.06;45.44
77281;BME280;66339;47.262;17.144;2023-03-24T04:17:24;99656.81;;;20.04;45.48
77281;BME280;66339;47.262;17.144;2023-03-24T04:20:08;99661.34;;;20.04;45.51
77281;BME280;66339;47.262;17.144;2023-03-24T04:25:31;99653.62;;;20.02;45.51
77281;BME280;66339;47.262;17.144;2023-03-24T04:28:21;99655.19;;;20.03;45.53
77281;BME280;66339;47.262;17.144;2023-03-24T04:33:44;99657.87;;;20.03;45.50
77281;BME280;66339;47.262;17.144;2023-03-24T04:36:19;99660.56;;;20.03;45.42
77281;BME280;66339;47.262;17.144;2023-03-24T04:38:53;99665.16;;;20.03;45.50
77281;BME280;66339;47.262;17.144;2023-03-24T04:41:25;99662.78;;;20.01;45.52
77281;BME280;66339;47.262;17.144;2023-03-24T04:43:59;99662.78;;;20.01;45.43
77281;BME280;66339;47.262;17.144;2023-03-24T04:46:30;99673.50;;;20.01;45.45
77281;BME280;66339;47.262;17.144;2023-03-24T04:48:58;99663.56;;;20.02;45.41
77281;BME280;66339;47.262;17.144;2023-03-24T04:51:28;99677.28;;;20.00;45.42
77281;BME280;66339;47.262;17.144;2023-03-24T04:53:58;99672.50;;;19.97;45.45
77281;BME280;66339;47.262;17.144;2023-03-24T04:59:14;99679.44;;;19.98;45.37
77281;BME280;66339;47.262;17.144;2023-03-24T05:01:47;99671.72;;;19.97;45.34
77281;BME280;66339;47.262;17.144;2023-03-24T05:04:23;99675.47;;;19.96;45.37
77281;BME280;66339;47.262;17.144;2023-03-24T05:09:16;99666.81;;;19.99;45.25
77281;BME280;66339;47.262;17.144;2023-03-24T05:11:48;99665.50;;;19.96;45.26
77281;BME280;66339;47.262;17.144;2023-03-24T05:14:15;99662.94;;;19.91;45.40
77281;BME280;66339;47.262;17.144;2023-03-24T05:16:42;99663.72;;;19.92;45.34
77281;BME280;66339;47.262;17.144;2023-03-24T05:19:16;99663.22;;;19.90;45.33
77281;BME280;66339;47.262;17.144;2023-03-24T05:21:42;99673.66;;;19.91;45.36
77281;BME280;66339;47.262;17.144;2023-03-24T05:24:13;99665.03;;;19.94;45.29
77281;BME280;66339;47.262;17.144;2023-03-24T05:26:45;99666.13;;;19.93;45.38
77281;BME280;66339;47.262;17.144;2023-03-24T05:29:12;99670.72;;;19.93;45.45
77281;BME280;66339;47.262;17.144;2023-03-24T05:31:42;99666.91;;;19.94;45.41
77281;BME280;66339;47.262;17.144;2023-03-24T05:34:15;99667.72;;;19.94;45.41
77281;BME280;66339;47.262;17.144;2023-03-24T05:36:42;99668.50;;;19.95;45.39
77281;BME280;66339;47.262;17.144;2023-03-24T05:39:12;99665.03;;;19.94;45.40
77281;BME280;66339;47.262;17.144;2023-03-24T05:41:46;99673.87;;;19.95;45.42
77281;BME280;66339;47.262;17.144;2023-03-24T05:44:13;99675.47;;;19.96;45.47
77281;BME280;66339;47.262;17.144;2023-03-24T05:46:48;99678.16;;;19.96;45.44
77281;BME280;66339;47.262;17.144;2023-03-24T05:49:19;99678.66;;;19.98;45.44
77281;BME280;66339;47.262;17.144;2023-03-24T05:51:47;99684.03;;;19.98;45.53
77281;BME280;66339;47.262;17.144;2023-03-24T05:54:14;99673.50;;;20.01;45.33
77281;BME280;66339;47.262;17.144;2023-03-24T05:56:48;99673.50;;;20.01;45.26
77281;BME280;66339;47.262;17.144;2023-03-24T05:59:16;99674.09;;;19.98;45.43
77281;BME280;66339;47.262;17.144;2023-03-24T06:01:43;99677.56;;;19.99;45.62
77281;BME280;66339;47.262;17.144;2023-03-24T06:04:16;99668.63;;;20.03;45.45
77281;BME280;66339;47.262;17.144;2023-03-24T06:06:47;99673.72;;;20.05;45.72
77281;BME280;66339;47.262;17.144;2023-03-24T06:09:17;99670.72;;;20.06;45.97
77281;BME280;66339;47.262;17.144;2023-03-24T06:11:51;99670.12;;;20.09;46.20
77281;BME280;66339;47.262;17.144;2023-03-24T06:14:26;99669.75;;;20.16;46.49
77281;BME280;66339;47.262;17.144;2023-03-24T06:16:54;99672.16;;;20.18;46.86
77281;BME280;66339;47.262;17.144;2023-03-24T06:19:21;99673.44;;;20.20;47.15
77281;BME280;66339;47.262;17.144;2023-03-24T06:21:53;99670.16;;;20.23;47.20
77281;BME280;66339;47.262;17.144;2023-03-24T06:24:27;99660.72;;;20.26;47.33
77281;BME280;66339;47.262;17.144;2023-03-24T06:26:54;99662.81;;;20.29;47.36
77281;BME280;66339;47.262;17.144;2023-03-24T06:29:25;99657.94;;;20.31;47.40
77281;BME280;66339;47.262;17.144;2023-03-24T06:31:54;99658.44;;;20.33;47.38
77281;BME280;66339;47.262;17.144;2023-03-24T06:34:24;99660.22;;;20.38;47.28
77281;BME280;66339;47.262;17.144;2023-03-24T06:36:55;99650.28;;;20.38;47.37
77281;BME280;66339;47.262;17.144;2023-03-24T06:39:25;99651.28;;;20.42;47.34
77281;BME280;66339;47.262;17.144;2023-03-24T06:41:58;99651.28;;;20.42;47.47
77281;BME280;66339;47.262;17.144;2023-03-24T06:44:28;99650.69;;;20.45;47.32
77281;BME280;66339;47.262;17.144;2023-03-24T06:46:55;99650.91;;;20.49;47.53
77281;BME280;66339;47.262;17.144;2023-03-24T06:49:25;99657.28;;;20.53;47.69
77281;BME280;66339;47.262;17.144;2023-03-24T06:51:53;99650.34;;;20.52;47.81
77281;BME280;66339;47.262;17.144;2023-03-24T06:54:26;99655.72;;;20.52;47.59
77281;BME280;66339;47.262;17.144;2023-03-24T06:56:56;99652.72;;;20.53;47.55
77281;BME280;66339;47.262;17.144;2023-03-24T06:59:28;99648.91;;;20.54;47.60
77281;BME280;66339;47.262;17.144;2023-03-24T07:01:55;99645.16;;;20.55;47.42
77281;BME280;66339;47.262;17.144;2023-03-24T07:04:31;99633.00;;;20.58;47.34
77281;BME280;66339;47.262;17.144;2023-03-24T07:06:59;99639.16;;;20.58;47.36
77281;BME280;66339;47.262;17.144;2023-03-24T07:09:51;99639.16;;;20.58;47.10
77281;BME280;66339;47.262;17.144;2023-03-24T07:12:25;99632.22;;;20.57;47.32
77281;BME280;66339;47.262;17.144;2023-03-24T07:14:57;99631.09;;;20.58;47.52
77281;BME280;66339;47.262;17.144;2023-03-24T07:17:24;99624.94;;;20.58;47.52
77281;BME280;66339;47.262;17.144;2023-03-24T07:19:54;99622.25;;;20.58;47.65
77281;BME280;66339;47.262;17.144;2023-03-24T07:22:25;99621.47;;;20.57;47.61
77281;BME280;66339;47.262;17.144;2023-03-24T07:24:55;99614.97;;;20.58;47.61
77281;BME280;66339;47.262;17.144;2023-03-24T07:27:29;99620.87;;;20.61;47.44
77281;BME280;66339;47.262;17.144;2023-03-24T07:30:00;99622.97;;;20.64;47.18
77281;BME280;66339;47.262;17.144;2023-03-24T07:32:36;99616.50;;;20.65;47.03
77281;BME280;66339;47.262;17.144;2023-03-24T07:35:12;99615.91;;;20.68;46.97
77281;BME280;66339;47.262;17.144;2023-03-24T07:37:39;99617.47;;;20.69;47.08
77281;BME280;66339;47.262;17.144;2023-03-24T07:40:08;99619.84;;;20.70;47.11
77281;BME280;66339;47.262;17.144;2023-03-24T07:42:39;99618.78;;;20.71;47.09
77281;BME280;66339;47.262;17.144;2023-03-24T07:45:08;99615.28;;;20.71;47.06
77281;BME280;66339;47.262;17.144;2023-03-24T07:47:36;99613.41;;;20.71;47.14
77281;BME280;66339;47.262;17.144;2023-03-24T07:50:07;99614.19;;;20.72;47.21
77281;BME280;66339;47.262;17.144;2023-03-24T07:52:46;99611.50;;;20.72;47.38
77281;BME280;66339;47.262;17.144;2023-03-24T07:55:18;99615.28;;;20.71;47.51
77281;BME280;66339;47.262;17.144;2023-03-24T07:57:51;99613.88;;;20.73;47.21
77281;BME280;66339;47.262;17.144;2023-03-24T08:00:22;99617.69;;;20.72;47.68
77281;BME280;66339;47.262;17.144;2023-03-24T08:02:53;99630.00;;;20.73;47.90
77281;BME280;66339;47.262;17.144;2023-03-24T08:05:21;99629.22;;;20.73;47.97
77281;BME280;66339;47.262;17.144;2023-03-24T08:07:50;99615.19;;;20.76;48.06
77281;BME280;66339;47.262;17.144;2023-03-24T08:10:23;99621.03;;;20.78;48.13
77281;BME280;66339;47.262;17.144;2023-03-24T08:12:50;99624.84;;;20.77;48.19
77281;BME280;66339;47.262;17.144;2023-03-24T08:15:23;99626.31;;;20.83;48.03
77281;BME280;66339;47.262;17.144;2023-03-24T08:17:53;99620.94;;;20.83;48.06
77281;BME280;66339;47.262;17.144;2023-03-24T08:20:23;99615.56;;;20.83;48.20
77281;BME280;66339;47.262;17.144;2023-03-24T08:23:05;99607.50;;;20.83;47.75
77281;BME280;66339;47.262;17.144;2023-03-24T08:25:36;99616.84;;;20.86;47.29
77281;BME280;66339;47.262;17.144;2023-03-24T08:28:17;99606.88;;;20.86;47.48
77281;BME280;66339;47.262;17.144;2023-03-24T08:30:50;99616.56;;;20.87;47.56
77281;BME280;66339;47.262;17.144;2023-03-24T08:33:18;99611.66;;;20.89;47.55
77281;BME280;66339;47.262;17.144;2023-03-24T08:35:50;99613.25;;;20.90;47.56
77281;BME280;66339;47.262;17.144;2023-03-24T08:38:17;99613.25;;;20.90;47.50
77281;BME280;66339;47.262;17.144;2023-03-24T08:40:48;99594.94;;;20.92;47.56
77281;BME280;66339;47.262;17.144;2023-03-24T08:43:34;99594.63;;;20.94;47.44
77281;BME280;66339;47.262;17.144;2023-03-24T08:46:01;99598.09;;;20.94;47.47
77281;BME280;66339;47.262;17.144;2023-03-24T08:48:32;99597.50;;;20.97;47.42
77281;BME280;66339;47.262;17.144;2023-03-24T08:51:12;99595.94;;;20.96;47.33
77281;BME280;66339;47.262;17.144;2023-03-24T08:53:42;99584.06;;;20.97;47.24
77281;BME280;66339;47.262;17.144;2023-03-24T08:56:12;99583.78;;;20.99;47.00
77281;BME280;66339;47.262;17.144;2023-03-24T08:58:43;99584.56;;;20.99;46.92
77281;BME280;66339;47.262;17.144;2023-03-24T09:01:14;99579.19;;;20.99;46.93
77281;BME280;66339;47.262;17.144;2023-03-24T09:03:53;99585.97;;;20.97;46.80
77281;BME280;66339;47.262;17.144;2023-03-24T09:06:30;99587.34;;;20.94;46.86
77281;BME280;66339;47.262;17.144;2023-03-24T09:08:58;99582.28;;;20.93;46.98
77281;BME280;66339;47.262;17.144;2023-03-24T09:11:34;99585.78;;;20.93;46.89
77281;BME280;66339;47.262;17.144;2023-03-24T09:14:04;99587.34;;;20.94;46.91
77281;BME280;66339;47.262;17.144;2023-03-24T09:16:37;99584.97;;;20.93;47.03
77281;BME280;66339;47.262;17.144;2023-03-24T09:19:07;99584.19;;;20.92;46.96
77281;BME280;66339;47.262;17.144;2023-03-24T09:21:37;99575.00;;;20.93;46.92
77281;BME280;66339;47.262;17.144;2023-03-24T09:24:04;99558.87;;;20.93;46.76
77281;BME280;66339;47.262;17.144;2023-03-24T09:26:34;99566.66;;;20.95;46.94
77281;BME280;66339;47.262;17.144;2023-03-24T09:29:04;99566.34;;;20.96;47.00
77281;BME280;66339;47.262;17.144;2023-03-24T09:31:34;99551.34;;;20.95;46.99
77281;BME280;66339;47.262;17.144;2023-03-24T09:34:09;99547.53;;;20.96;46.95
77281;BME280;66339;47.262;17.144;2023-03-24T09:36:41;99543.75;;;20.97;46.97
77281;BME280;66339;47.262;17.144;2023-03-24T09:39:12;99550.41;;;21.00;46.85
77281;BME280;66339;47.262;17.144;2023-03-24T09:41:44;99543.13;;;21.00;46.69
77281;BME280;66339;47.262;17.144;2023-03-24T09:44:25;99546.63;;;21.01;46.79
77281;BME280;66339;47.262;17.144;2023-03-24T09:47:00;99548.69;;;21.04;46.73
77281;BME280;66339;47.262;17.144;2023-03-24T09:49:34;99543.31;;;21.04;46.56
77281;BME280;66339;47.262;17.144;2023-03-24T09:52:15;99534.16;;;21.05;46.50
77281;BME280;66339;47.262;17.144;2023-03-24T09:55:16;99522.59;;;21.04;46.58
77281;BME280;66339;47.262;17.144;2023-03-24T09:57:47;99530.06;;;21.07;46.39
77281;BME280;66339;47.262;17.144;2023-03-24T10:00:26;99527.38;;;21.07;46.47
77281;BME280;66339;47.262;17.144;2023-03-24T10:03:18;99525.16;;;21.09;46.46
77281;BME280;66339;47.262;17.144;2023-03-24T10:06:22;99535.44;;;21.07;46.52
77281;BME280;66339;47.262;17.144;2023-03-24T10:09:06;99537.53;;;21.11;46.49
77281;BME280;66339;47.262;17.144;2023-03-24T10:11:43;99539.13;;;21.12;46.43
77281;BME280;66339;47.262;17.144;2023-03-24T10:17:07;99525.66;;;21.12;46.39
77281;BME280;66339;47.262;17.144;2023-03-24T10:20:03;99531.53;;;21.14;46.34
77281;BME280;66339;47.262;17.144;2023-03-24T10:22:59;99531.53;;;21.14;46.34
77281;BME280;66339;47.262;17.144;2023-03-24T10:28:25;99522.97;;;21.12;46.31
77281;BME280;66339;47.262;17.144;2023-03-24T10:31:00;99526.78;;;21.11;46.33
77281;BME280;66339;47.262;17.144;2023-03-24T10:33:36;99525.34;;;21.13;46.28
77281;BME280;66339;47.262;17.144;2023-03-24T10:36:20;99524.56;;;21.13;46.21
77281;BME280;66339;47.262;17.144;2023-03-24T10:38:50;99519.78;;;21.09;45.63
77281;BME280;66339;47.262;17.144;2023-03-24T10:41:24;99523.59;;;21.08;45.49
77281;BME280;66339;47.262;17.144;2023-03-24T10:43:55;99525.81;;;21.06;46.04
77281;BME280;66339;47.262;17.144;2023-03-24T10:46:32;99524.78;;;21.02;46.62
77281;BME280;66339;47.262;17.144;2023-03-24T10:49:22;99515.66;;;21.03;46.99
77281;BME280;66339;47.262;17.144;2023-03-24T10:51:59;99510.28;;;21.03;46.78
77281;BME280;66339;47.262;17.144;2023-03-24T10:54:32;99510.28;;;21.03;46.89
77281;BME280;66339;47.262;17.144;2023-03-24T10:57:04;99498.91;;;21.06;46.86
77281;BME280;66339;47.262;17.144;2023-03-24T11:02:33;99505.25;;;21.11;47.18
77281;BME280;66339;47.262;17.144;2023-03-24T11:05:17;99509.81;;;21.10;47.06
77281;BME280;66339;47.262;17.144;2023-03-24T11:07:51;99507.97;;;21.11;46.65
77281;BME280;66339;47.262;17.144;2023-03-24T11:10:24;99505.41;;;21.14;46.74
77281;BME280;66339;47.262;17.144;2023-03-24T11:15:30;99503.56;;;21.15;46.87
77281;BME280;66339;47.262;17.144;2023-03-24T11:18:15;99498.19;;;21.15;46.51
77281;BME280;66339;47.262;17.144;2023-03-24T11:20:55;99483.63;;;21.16;46.35
77281;BME280;66339;47.262;17.144;2023-03-24T11:23:39;99482.50;;;21.17;46.51
77281;BME280;66339;47.262;17.144;2023-03-24T11:26:18;99491.37;;;21.17;46.45
77281;BME280;66339;47.262;17.144;2023-03-24T11:28:50;99477.13;;;21.17;46.76
77281;BME280;66339;47.262;17.144;2023-03-24T11:31:27;99472.53;;;21.17;47.45
77281;BME280;66339;47.262;17.144;2023-03-24T11:34:00;99467.34;;;21.21;47.14
77281;BME280;66339;47.262;17.144;2023-03-24T11:36:35;99463.56;;;21.22;46.60
77281;BME280;66339;47.262;17.144;2023-03-24T11:39:25;99457.56;;;21.25;46.36
77281;BME280;66339;47.262;17.144;2023-03-24T11:42:26;99459.16;;;21.26;46.15
77281;BME280;66339;47.262;17.144;2023-03-24T11:44:56;99454.25;;;21.28;46.12
77281;BME280;66339;47.262;17.144;2023-03-24T11:47:38;99452.53;;;21.32;45.96
77281;BME280;66339;47.262;17.144;2023-03-24T11:50:20;99441.00;;;21.31;45.87
77281;BME280;66339;47.262;17.144;2023-03-24T11:52:58;99444.63;;;21.27;45.61
77281;BME280;66339;47.262;17.144;2023-03-24T11:55:50;99443.00;;;21.26;45.50
77281;BME280;66339;47.262;17.144;2023-03-24T12:01:32;99430.56;;;21.30;45.64
77281;BME280;66339;47.262;17.144;2023-03-24T12:10:37;99426.25;;;21.29;45.29
77281;BME280;66339;47.262;17.144;2023-03-24T12:13:36;99427.97;;;21.25;45.22
77281;BME280;66339;47.262;17.144;2023-03-24T12:21:57;99403.66;;;21.30;45.05
77281;BME280;66339;47.262;17.144;2023-03-24T12:41:20;99382.03;;;21.35;44.69
77281;BME280;66339;47.262;17.144;2023-03-24T12:46:43;99378.84;;;21.33;44.82
77281;BME280;66339;47.262;17.144;2023-03-24T12:49:26;99367.09;;;21.29;44.93
77281;BME280;66339;47.262;17.144;2023-03-24T12:55:10;99358.72;;;21.30;44.86
77281;BME280;66339;47.262;17.144;2023-03-24T12:57:53;99359.50;;;21.31;44.93
77281;BME280;66339;47.262;17.144;2023-03-24T13:00:37;99356.81;;;21.31;45.05
77281;BME280;66339;47.262;17.144;2023-03-24T13:03:40;99345.56;;;21.29;45.33
77281;BME280;66339;47.262;17.144;2023-03-24T13:06:21;99349.53;;;21.31;45.64
77281;BME280;66339;47.262;17.144;2023-03-24T13:09:09;99344.00;;;21.28;45.63
77281;BME280;66339;47.262;17.144;2023-03-24T13:11:52;99342.41;;;21.27;45.72
77281;BME280;66339;47.262;17.144;2023-03-24T13:14:26;99338.13;;;21.26;45.72
77281;BME280;66339;47.262;17.144;2023-03-24T13:17:03;99333.56;;;21.26;45.77
77281;BME280;66339;47.262;17.144;2023-03-24T13:19:41;99330.87;;;21.26;45.81
77281;BME280;66339;47.262;17.144;2023-03-24T13:22:16;99335.44;;;21.26;45.90
77281;BME280;66339;47.262;17.144;2023-03-24T13:24:50;99341.91;;;21.25;46.02
77281;BME280;66339;47.262;17.144;2023-03-24T13:27:35;99337.03;;;21.27;46.03
77281;BME280;66339;47.262;17.144;2023-03-24T13:30:41;99337.03;;;21.27;46.14
77281;BME280;66339;47.262;17.144;2023-03-24T13:33:19;99336.44;;;21.30;46.07
77281;BME280;66339;47.262;17.144;2023-03-24T13:38:57;99321.88;;;21.31;46.13
77281;BME280;66339;47.262;17.144;2023-03-24T13:41:32;99324.25;;;21.32;46.12
77281;BME280;66339;47.262;17.144;2023-03-24T13:44:22;99333.91;;;21.33;46.13
77281;BME280;66339;47.262;17.144;2023-03-24T13:47:13;99322.53;;;21.37;46.01
77281;BME280;66339;47.262;17.144;2023-03-24T13:50:05;99323.03;;;21.39;45.96
77281;BME280;66339;47.262;17.144;2023-03-24T13:52:38;99321.91;;;21.40;45.95
77281;BME280;66339;47.262;17.144;2023-03-24T13:55:19;99320.00;;;21.40;45.96
77281;BME280;66339;47.262;17.144;2023-03-24T13:59:04;99315.75;;;21.39;45.99
77281;BME280;66339;47.262;17.144;2023-03-24T14:03:45;99316.03;;;21.38;46.16
77281;BME280;66339;47.262;17.144;2023-03-24T14:06:43;99309.88;;;21.37;46.21
77281;BME280;66339;47.262;17.144;2023-03-24T14:12:14;99309.88;;;21.37;46.15
77281;BME280;66339;47.262;17.144;2023-03-24T14:15:13;99312.56;;;21.37;46.15
77281;BME280;66339;47.262;17.144;2023-03-24T14:17:47;99310.97;;;21.36;46.21
77281;BME280;66339;47.262;17.144;2023-03-24T14:20:31;99310.31;;;21.30;46.23
77281;BME280;66339;47.262;17.144;2023-03-24T14:23:02;99310.50;;;21.34;46.22
77281;BME280;66339;47.262;17.144;2023-03-24T14:25:32;99312.69;;;21.32;46.32
77281;BME280;66339;47.262;17.144;2023-03-24T14:36:32;99304.16;;;21.30;46.93
77281;BME280;66339;47.262;17.144;2023-03-24T14:41:56;99303.53;;;21.33;46.61
77281;BME280;66339;47.262;17.144;2023-03-24T14:47:21;99295.25;;;21.29;46.67
77281;BME280;66339;47.262;17.144;2023-03-24T14:50:09;99298.28;;;21.28;46.70
77281;BME280;66339;47.262;17.144;2023-03-24T14:52:48;99284.81;;;21.28;46.65
77281;BME280;66339;47.262;17.144;2023-03-24T14:55:17;99284.97;;;21.23;46.99
77281;BME280;66339;47.262;17.144;2023-03-24T14:57:50;99287.66;;;21.23;47.08
77281;BME280;66339;47.262;17.144;2023-03-24T15:00:26;99290.34;;;21.23;47.10
77281;BME280;66339;47.262;17.144;2023-03-24T15:03:20;99275.94;;;21.19;47.07
77281;BME280;66339;47.262;17.144;2023-03-24T15:05:52;99280.84;;;21.17;47.13
77281;BME280;66339;47.262;17.144;2023-03-24T15:08:29;99282.56;;;21.13;47.20
77281;BME280;66339;47.262;17.144;2023-03-24T15:11:05;99277.19;;;21.13;47.10
77281;BME280;66339;47.262;17.144;2023-03-24T15:13:42;99273.06;;;21.06;47.26
77281;BME280;66339;47.262;17.144;2023-03-24T15:16:34;99275.59;;;21.12;47.13
77281;BME280;66339;47.262;17.144;2023-03-24T15:27:05;99256.75;;;21.03;47.45
77281;BME280;66339;47.262;17.144;2023-03-24T15:29:40;99256.75;;;21.03;47.52
77281;BME280;66339;47.262;17.144;2023-03-24T15:32:21;99246.47;;;21.05;47.55
77281;BME280;66339;47.262;17.144;2023-03-24T15:34:58;99247.75;;;21.07;47.44
77281;BME280;66339;47.262;17.144;2023-03-24T15:37:39;99249.66;;;21.07;47.48
77281;BME280;66339;47.262;17.144;2023-03-24T15:40:31;99253.59;;;21.09;47.43
77281;BME280;66339;47.262;17.144;2023-03-24T15:43:00;99248.72;;;21.12;47.38
77281;BME280;66339;47.262;17.144;2023-03-24T15:45:48;99254.09;;;21.12;47.37
77281;BME280;66339;47.262;17.144;2023-03-24T15:48:36;99248.72;;;21.12;47.39
77281;BME280;66339;47.262;17.144;2023-03-24T15:51:10;99254.09;;;21.12;47.39
77281;BME280;66339;47.262;17.144;2023-03-24T15:53:54;99255.06;;;21.16;47.26